Latest Observation

42 Stations

15 Minute Data | America/Los_Angeles
as of 9/1/26 2:16 PM PDT
Station Date Time Temp (°F) RH (%) Dew Pt (°F) Wind Spd (mph) Wind Dir (°) Wind Gust (mph) Latest Rain (In) Daily Rain (In) Daily Min Temp (°F) Daily Max Temp (°F) Daily Max Wind (mph)
Elk Mt. Farm 8/13/26 1500 85.6   7.4 - - - - - - - 51.4   1.1 85.6   7.4 -
Upper Lake 9/1/26 1415 67.8   16.4 55   22 50.9   0.6 2.0 ENE | 65 6.1   6.2 0.00 0.00 55.8   10.4 68.3   17.6 11.8   0.5
Scotts Valley 9/1/26 1415 71.1   13.6 43   13 47.4   2.0 3.8 SSW | 200 11.1   0.8 0.00 0.00 47.0   5.8 72.4   13.0 11.1   1.8
Scotts Valley-South (Bella Vista) 9/1/26 1415 70.0   10.2 40   11 44.6   0.8 4.1 SW | 220 8.1   6.2 0.00 0.00 49.2   3.2 70.5   12.9 12.1   2.2
Kelseyville 9/1/26 1415 70.5   11.8 48   14 50.1   1.6 3.3 N | 350 8.8   4.8 0.00 0.00 47.7   1.4 71.5   12.1 11.2   4.2
Kelseyville Remote 9/1/26 1415 70.1   11.9 43   16 46.8   2.1 - - - 0.00 0.00 48.2   0.6 70.6   13.8 -
Kelseyville (Clark Drive) 9/1/26 1415 70.1   14.0 - - - - - 0.00 0.00 45.2   0.5 73.4   13.5 -
Kelsey Bench (Oaklea) 9/1/26 1415 70.3   10.4 46   15 48.8   1.1 6.6 WSW | 254 12.3   1.7 0.00 0.00 49.1   2.0 71.0   11.3 15.5   0.3
Smith Lane (Kelseyville-South) 9/1/26 1415 69.4   13.1 49   18 49.3   0.3 5.0 WSW | 242 9.9   6.7 0.00 0.00 44.2   0.2 72.2   11.8 11.6   5.0
Bell Hill-West 9/1/26 1415 68.3   12.9 57   22 52.7   1.1 5.3 WSW | 239 11.5   4.0 0.00 0.00 48.0   0.1 69.8   12.6 13.5   3.7
High Valley Ridgeline (Brassfield) 9/1/26 1415 65.4   13.7 48   17 45.1   0.9 6.5 WSW | 241 10.8   4.8 0.00 0.00 51.9   9.1 66.7   14.5 23.8   8.2
Wight Way (Adobe Creek) 9/1/26 1400 69.7   15.1 45   19 47.7   1.3 2.8 S | 172 7.5   4.7 0.00 0.00 46.2   1.8 76.9   11.3 10.2   6.6
Ridgeline Top (Brassfield) 9/1/26 1415 67.3   15.1 - - - - - - - 51.6   9.1 70.2   12.8 -
Ridgeline Low (Brassfield) 9/1/26 1415 65.9   14.2 - - - - - - - 53.4   4.6 67.4   14.9 -
Long Valley (Shannon) 6/29/26 1400 84.9   4.6 25   1 44.9   3.2 2.9 ENE | 75 10.2   0.4 0.00 0.00 46.4   0.4 86.9   6.5 13.7   1.8
High Valley Winery 9/1/26 1415 68.3   14.6 42   16 44.2   0.2 5.4 WSW | 241 10.4   3.3 0.00 0.00 53.3   8.9 70.1   13.9 18.8   5.0
Round Mtn Rd. 9/1/26 1030 58.8   17.7 - - - - - - - 48.7   2.1 59.1   17.4 -
Circle O 9/1/26 1415 67.6   16.0 - - - - - - - 49.9   2.0 68.7   16.6 -
Robertsbridge Vineyards 9/1/26 1415 68.9   13.2 44   17 46.4   0.9 - - - - - 44.8   1.9 69.7   14.3 -
Urgency Vineyard 9/1/26 1415 72.1   12.2 35   9 42.9   2.9 2.1 WSW | 255 8.8   0.8 0.00 0.00 51.1   7.3 72.1   12.9 11.0   0.7
Red Hills (Beckstoffer) 9/1/26 1415 71.1   12.8 38   11 44.0   2.3 - - - 0.00 0.00 51.7   11.6 72.4   13.5 -
Winters (Shannon) 9/1/26 1415 66.3   15.8 48   20 46.2   0.2 2.5 NNE | 19 6.6   6.9 0.00 0.00 51.1   11.7 69.8   13.5 14.0   1.7
Secret Pond (Shannon) 9/1/26 1415 66.2   15.1 46   18 45.0   0.9 1.8 ENE | 64 7.0   1.3 0.00 0.00 48.4   5.4 67.3   15.1 19.7   9.6
Rolling Knolls (Shannon) 9/1/26 1415 67.9   14.5 48   20 47.7   1.0 1.6 NE | 35 3.6   8.0 0.00 0.00 53.6   10.2 69.6   14.5 13.7   2.1
Lower Lake 9/1/26 1415 67.6   15.0 48   17 47.0   1.6 3.1 N | 355 5.2   7.7 0.00 0.00 53.2   1.9 69.8   13.5 16.3   2.9
Adamson Ranch 9/1/26 1415 71.4   12.3 42   12 47.4   1.9 6.2 SSE | 166 12.5   2.4 0.00 0.00 44.1   1.6 72.8   11.2 12.9   2.0
Middletown (Diamond D) 9/1/26 1415 71.7   7.0 46   6 49.7   2.6 6.6 N | 355 15.2   2.2 0.00 0.00 41.5   2.6 72.3   9.6 19.1   4.7
Middletown-West (Domaine Helena) 9/1/26 1415 70.9   4.3 45   4 48.8   1.3 9.8 SSW | 204 15.5   7.6 0.00 0.00 41.1   0.5 72.1   11.2 18.7   5.9
Middletown-South 9/1/26 1415 70.9   10.2 43   8 47.2   3.2 5.2 SW | 231 11.6   3.4 0.00 0.00 45.1   0.2 71.7   10.8 15.6   6.5
Jim Davis (Langtry) 9/1/26 1415 71.1   7.3 44   1 48.1   6.1 6.1 SSW | 211 12.6   1.9 0.00 0.00 47.6   4.1 72.2   6.7 16.4   2.0
Napa Valley Basin 9/1/26 1415 71.4   8.3 44   3 48.5   5.4 6.4 W | 260 12.9   0.2 0.00 0.00 42.3   1.0 74.1   6.1 14.5   1.8
Lower Bohn 9/1/26 1415 71.4   7.8 44   3 48.2   4.9 4.7 ESE | 111 10.3   2.1 0.00 0.00 38.6   4.1 74.4   5.5 13.5   1.9
Upper Bohn-North 9/1/26 1415 72.0   6.7 39   1 45.6   5.5 3.8 SW | 220 8.0   6.6 0.00 0.00 46.3   2.2 75.5   4.9 11.5   3.1
Snell Peak Blk#9 9/1/26 1415 70.9   8.0 38   0 43.9   6.8 5.6 SW | 230 13.3   2.1 0.00 0.00 49.6   2.0 72.7   8.0 15.9   2.2
Coyote Lake West 9/1/26 1415 71.8   6.6 45   0 49.6   5.8 6.8 S | 184 13.8   0.0 0.00 0.00 46.4   1.4 72.6   5.8 17.0   3.2
Coyote Lake Northeast 9/1/26 1415 74.1   5.7 44   2 50.8   4.1 - - - - - 48.5   3.6 74.6   6.1 -
Coyote Lake East 9/1/26 1415 75.2   4.0 41   2 49.7   4.6 - - - - - 44.7   0.1 75.3   4.3 -
Morgan Valley 9/1/26 1415 64.8   11.2 51   6 46.4   6.6 5.5 S | 176 12.8   0.7 0.00 0.00 50.7   9.5 65.8   10.5 19.8   5.7
Mine Pit North 9/1/26 1415 68.6   10.9 43   6 45.4   5.6 3.5 SSW | 195 8.9   7.8 - - 48.5   6.4 71.7   9.5 21.2   4.1
Mine Pit South 9/1/26 1415 69.5   8.2 39   4 43.7   4.1 6.4 SW | 225 15.3   2.6 0.00 0.00 49.6   4.0 71.7   7.6 18.3   0.4
Cow Mountain 9/1/26 1415 55.7   11.2 - - 10.3 WSW | 240 20.2   5.0 0.00 0.06 46.2   15.2 58.2   14.7 32.2   7.0
Ukiah-SE (Ruddick) 9/1/26 1415 70.4   10.2 48   12 50.0   1.3 1.8 SSW | 210 5.7   8.2 0.00 0.00 58.9   11.9 71.1   10.6 11.7   2.2
Max     75.2 57 52.7 10.3 - 20.2 0.00 0.06 58.9 76.9 32.2
Avg     69.3 45 47.4 4.8 - 10.5 0.00 - - - -
Min     55.7 35 42.9 1.6 - 3.6 0.00 0.00 38.6 58.2 10.2